Time;durP1;ratioP1;P1;durP2;ratioP2;P2;SDS_P1;SDS_P2;PMS_P1;PMS_P2;Temp;Humidity;BMP_temperature;BMP_pressure;BME280_temperature;BME280_humidity;BME280_pressure;Samples;Min_cycle;Max_cycle;Signal;HPM_P1;HPM_P2
2021/07/22 00:02:25;;;;;;;20.10;12.48;;;24.40;99.90;;;;;;4995986;28;20083;-82
2021/07/22 00:04:51;;;;;;;17.38;12.30;;;24.50;99.90;;;;;;4978276;28;20030;-82
2021/07/22 00:07:17;;;;;;;22.88;12.65;;;24.40;99.90;;;;;;4995680;28;20022;-82
2021/07/22 00:09:43;;;;;;;16.63;11.48;;;24.50;99.90;;;;;;4978211;28;20034;-82
2021/07/22 00:12:09;;;;;;;21.10;12.00;;;24.40;99.90;;;;;;4995356;28;20061;-82
2021/07/22 00:14:36;;;;;;;20.27;12.65;;;24.40;99.90;;;;;;4977259;28;20061;-82
2021/07/22 00:17:05;;;;;;;24.58;12.63;;;24.50;99.90;;;;;;4994642;28;20482;-83
2021/07/22 00:19:31;;;;;;;16.55;11.75;;;24.60;99.90;;;;;;4994447;28;20537;-82
2021/07/22 00:21:58;;;;;;;17.42;12.95;;;24.60;99.90;;;;;;4994191;28;20030;-82
2021/07/22 00:24:25;;;;;;;18.60;13.25;;;24.70;99.90;;;;;;4994229;28;20022;-82
2021/07/22 00:26:51;;;;;;;19.20;12.43;;;24.70;99.90;;;;;;4993938;28;20038;-83
2021/07/22 00:29:18;;;;;;;21.00;12.98;;;24.80;99.90;;;;;;4976969;28;20026;-81
2021/07/22 00:31:43;;;;;;;20.67;12.77;;;24.80;99.90;;;;;;4993940;28;20101;-82
2021/07/22 00:34:09;;;;;;;17.08;12.27;;;24.80;99.90;;;;;;4993270;28;20169;-83
2021/07/22 00:36:34;;;;;;;19.65;11.63;;;24.90;99.90;;;;;;4991700;28;20026;-82
2021/07/22 00:39:00;;;;;;;23.95;13.90;;;24.90;99.90;;;;;;4993211;28;20026;-82
2021/07/22 00:41:26;;;;;;;25.45;13.15;;;24.90;99.90;;;;;;4993016;28;20109;-82
2021/07/22 00:43:52;;;;;;;19.65;12.27;;;24.90;99.90;;;;;;4993397;28;20369;-83
2021/07/22 00:46:17;;;;;;;17.10;11.82;;;24.90;99.90;;;;;;4993326;28;20068;-82
2021/07/22 00:48:43;;;;;;;22.48;12.18;;;24.90;99.90;;;;;;4994485;28;20041;-83
2021/07/22 00:51:09;;;;;;;26.88;12.77;;;24.80;99.90;;;;;;4993433;28;20018;-83
2021/07/22 00:53:35;;;;;;;19.15;12.05;;;24.90;99.90;;;;;;4995482;28;20025;-82
2021/07/22 00:56:02;;;;;;;17.77;12.27;;;24.90;99.90;;;;;;4999134;28;20002;-82
2021/07/22 00:58:27;;;;;;;17.80;12.57;;;24.90;99.90;;;;;;4993456;28;20030;-83
2021/07/22 01:00:53;;;;;;;22.38;12.57;;;24.90;99.90;;;;;;4992196;28;20023;-82
2021/07/22 01:03:19;;;;;;;18.42;12.23;;;24.80;99.90;;;;;;4991546;28;20093;-82
2021/07/22 01:05:45;;;;;;;23.00;12.20;;;24.80;99.90;;;;;;4992926;28;20375;-83
2021/07/22 01:08:10;;;;;;;20.50;12.48;;;24.80;99.90;;;;;;4992362;28;20389;-82
2021/07/22 01:10:36;;;;;;;17.60;12.15;;;24.70;99.90;;;;;;4992509;28;20029;-83
2021/07/22 01:13:02;;;;;;;17.25;11.50;;;24.70;99.90;;;;;;4993026;28;20037;-83
2021/07/22 01:15:28;;;;;;;21.02;11.77;;;24.60;99.90;;;;;;4994314;28;20081;-82
2021/07/22 01:17:53;;;;;;;18.42;11.18;;;24.50;99.90;;;;;;4994571;28;20025;-82
2021/07/22 01:20:27;;;;;;;18.02;12.23;;;24.40;99.90;;;;;;4994487;28;20105;-82
2021/07/22 01:22:55;;;;;;;25.63;12.15;;;24.30;99.90;;;;;;4976917;28;20030;-83
2021/07/22 01:25:21;;;;;;;21.48;12.63;;;24.20;99.90;;;;;;4977044;28;20027;-83
2021/07/22 01:27:48;;;;;;;19.63;12.77;;;24.20;99.90;;;;;;4994539;28;20061;-83
2021/07/22 01:30:15;;;;;;;20.70;11.57;;;24.10;99.90;;;;;;4994107;28;20015;-84
2021/07/22 01:32:41;;;;;;;17.02;11.75;;;24.00;99.90;;;;;;4991419;28;20026;-83
2021/07/22 01:35:08;;;;;;;18.17;12.45;;;24.00;99.90;;;;;;4993636;28;20034;-83
2021/07/22 01:37:34;;;;;;;25.73;12.50;;;24.00;99.90;;;;;;4994151;28;20026;-83
2021/07/22 01:40:00;;;;;;;19.65;12.23;;;23.90;99.90;;;;;;4993594;28;20029;-83
2021/07/22 01:42:26;;;;;;;15.50;11.77;;;23.90;99.90;;;;;;4994069;28;20022;-83
2021/07/22 01:44:52;;;;;;;22.60;11.73;;;23.80;99.90;;;;;;4993776;28;20065;-82
2021/07/22 01:47:18;;;;;;;19.42;12.93;;;23.80;99.90;;;;;;4993884;28;20479;-83
2021/07/22 01:49:43;;;;;;;21.23;12.30;;;23.80;99.90;;;;;;4976234;28;20030;-84
2021/07/22 01:52:10;;;;;;;17.33;12.57;;;23.70;99.90;;;;;;4993103;28;20475;-82
2021/07/22 01:54:36;;;;;;;24.98;12.73;;;23.70;99.90;;;;;;4993133;28;20026;-83
2021/07/22 01:57:02;;;;;;;17.35;11.70;;;23.70;99.90;;;;;;4993722;28;20022;-83
2021/07/22 01:59:37;;;;;;;23.25;12.18;;;23.70;99.90;;;;;;4993631;28;20474;-83
2021/07/22 02:02:08;;;;;;;25.35;12.25;;;23.70;99.90;;;;;;4980469;28;20023;-83
2021/07/22 02:04:34;;;;;;;26.02;12.48;;;23.70;99.90;;;;;;4974086;28;20029;-83
2021/07/22 02:07:00;;;;;;;17.50;13.02;;;23.70;99.90;;;;;;4993300;28;20034;-83
2021/07/22 02:09:26;;;;;;;26.95;12.75;;;23.60;99.90;;;;;;4993227;28;20023;-83
2021/07/22 02:11:53;;;;;;;20.40;12.73;;;23.60;99.90;;;;;;4976219;28;20023;-83
2021/07/22 02:14:19;;;;;;;19.45;12.65;;;23.60;99.90;;;;;;4975919;28;20423;-84
2021/07/22 02:16:45;;;;;;;19.30;12.98;;;23.60;99.90;;;;;;4993429;28;20022;-84
2021/07/22 02:19:10;;;;;;;19.65;11.98;;;23.60;99.90;;;;;;4993407;28;20117;-82
2021/07/22 02:21:40;;;;;;;25.67;12.75;;;23.60;99.90;;;;;;4975118;28;20034;-83
2021/07/22 02:24:07;;;;;;;21.83;12.68;;;23.60;99.90;;;;;;4992324;28;20025;-84
2021/07/22 02:26:33;;;;;;;21.75;12.27;;;23.60;99.90;;;;;;4992866;28;20108;-83
2021/07/22 02:29:00;;;;;;;23.58;12.25;;;23.50;99.90;;;;;;4975912;28;20394;-84
2021/07/22 02:31:25;;;;;;;24.52;12.65;;;23.50;99.90;;;;;;4992988;28;20014;-84
2021/07/22 02:33:51;;;;;;;17.27;11.95;;;23.50;99.90;;;;;;4993151;28;20048;-83
2021/07/22 02:36:17;;;;;;;17.80;12.25;;;23.60;99.90;;;;;;4993161;28;20380;-84
2021/07/22 02:38:43;;;;;;;23.27;12.32;;;23.60;99.90;;;;;;4975151;28;20041;-84
2021/07/22 02:41:08;;;;;;;20.67;11.95;;;23.50;99.90;;;;;;4975769;28;20027;-84
2021/07/22 02:43:34;;;;;;;18.52;13.25;;;23.60;99.90;;;;;;4975703;28;20028;-83
2021/07/22 02:46:10;;;;;;;25.55;12.05;;;23.60;99.90;;;;;;4974872;28;20062;-84
2021/07/22 02:48:36;;;;;;;21.13;12.75;;;23.50;99.90;;;;;;4975942;28;20045;-84
2021/07/22 02:51:06;;;;;;;22.90;13.38;;;23.50;99.90;;;;;;4975423;28;20114;-84
2021/07/22 02:53:31;;;;;;;27.88;13.30;;;23.50;99.90;;;;;;4992638;28;20031;-84
2021/07/22 02:55:59;;;;;;;28.38;12.98;;;23.50;99.90;;;;;;4992432;28;20077;-84
2021/07/22 02:58:25;;;;;;;20.92;13.23;;;23.40;99.90;;;;;;4991960;28;20379;-84
2021/07/22 03:00:50;;;;;;;21.75;12.23;;;23.40;99.90;;;;;;4975179;28;20030;-84
2021/07/22 03:03:16;;;;;;;19.23;12.43;;;23.40;99.90;;;;;;4993099;28;20018;-84
2021/07/22 03:05:42;;;;;;;22.45;12.85;;;23.40;99.90;;;;;;4995590;28;20085;-84
2021/07/22 03:08:07;;;;;;;22.88;13.38;;;23.40;99.90;;;;;;4996570;28;20088;-84
2021/07/22 03:10:33;;;;;;;19.60;12.40;;;23.40;99.90;;;;;;4977402;28;20034;-84
2021/07/22 03:12:59;;;;;;;23.75;13.27;;;23.30;99.90;;;;;;4993309;28;20029;-84
2021/07/22 03:15:25;;;;;;;21.00;12.70;;;23.30;99.90;;;;;;4977285;28;20023;-84
2021/07/22 03:17:50;;;;;;;17.52;12.57;;;23.30;99.90;;;;;;4995015;28;20030;-85
2021/07/22 03:20:16;;;;;;;27.77;13.73;;;23.20;99.90;;;;;;4995019;28;20101;-84
2021/07/22 03:22:42;;;;;;;22.08;13.43;;;23.20;99.90;;;;;;4995225;28;20098;-84
2021/07/22 03:25:08;;;;;;;22.23;13.38;;;23.20;99.90;;;;;;4995926;28;20049;-84
2021/07/22 03:27:34;;;;;;;25.85;13.07;;;23.20;99.90;;;;;;4996144;28;20034;-83
2021/07/22 03:29:59;;;;;;;23.23;13.02;;;23.20;99.90;;;;;;4978930;28;20023;-83
2021/07/22 03:32:25;;;;;;;24.50;13.00;;;23.20;99.90;;;;;;4978743;28;20468;-83
2021/07/22 03:34:50;;;;;;;16.63;11.85;;;23.20;99.90;;;;;;4996449;28;20027;-84
2021/07/22 03:37:16;;;;;;;20.35;13.00;;;23.20;99.90;;;;;;4996431;28;20387;-84
2021/07/22 03:39:42;;;;;;;28.08;13.13;;;23.20;99.90;;;;;;4996085;28;20466;-84
2021/07/22 03:42:07;;;;;;;19.88;12.75;;;23.20;99.90;;;;;;4999258;28;20035;-83
2021/07/22 03:44:35;;;;;;;24.98;14.32;;;23.20;99.90;;;;;;4995878;28;20034;-84
2021/07/22 03:47:01;;;;;;;23.70;13.55;;;23.10;99.90;;;;;;4978323;28;20022;-83
2021/07/22 03:49:26;;;;;;;21.30;13.18;;;23.10;99.90;;;;;;4996126;28;20035;-83
2021/07/22 03:51:55;;;;;;;25.40;12.98;;;23.20;99.90;;;;;;4996163;28;20414;-82
2021/07/22 03:54:21;;;;;;;18.10;12.38;;;23.20;99.90;;;;;;4996280;28;20426;-83
2021/07/22 03:56:47;;;;;;;20.10;12.63;;;23.20;99.90;;;;;;4995925;28;20049;-83
2021/07/22 03:59:16;;;;;;;20.73;12.50;;;23.30;99.90;;;;;;4995902;28;20027;-83
2021/07/22 04:01:43;;;;;;;25.10;13.15;;;23.30;99.90;;;;;;4995617;28;20435;-84
2021/07/22 04:04:09;;;;;;;18.60;12.38;;;23.40;99.90;;;;;;4995916;28;20479;-83
2021/07/22 04:06:36;;;;;;;21.75;13.55;;;23.50;99.90;;;;;;4995661;28;20070;-84
2021/07/22 04:09:05;;;;;;;19.60;12.65;;;23.70;99.90;;;;;;4995575;28;20023;-84
2021/07/22 04:11:31;;;;;;;22.10;12.48;;;23.90;99.90;;;;;;4974675;28;20065;-82
2021/07/22 04:13:57;;;;;;;16.77;12.45;;;24.10;99.90;;;;;;4995848;28;20057;-83
2021/07/22 04:16:23;;;;;;;20.55;13.75;;;24.10;99.90;;;;;;4994808;28;20360;-83
2021/07/22 04:18:48;;;;;;;19.48;12.57;;;24.20;99.90;;;;;;4977766;28;20030;-84
2021/07/22 04:21:14;;;;;;;22.63;12.90;;;24.20;99.90;;;;;;4977810;28;20367;-85
2021/07/22 04:23:39;;;;;;;20.58;12.38;;;24.30;99.90;;;;;;4977562;28;20438;-83
2021/07/22 04:26:05;;;;;;;17.58;13.40;;;24.30;99.90;;;;;;4994641;28;20033;-83
2021/07/22 04:28:31;;;;;;;15.73;12.10;;;24.30;99.90;;;;;;4995355;28;20065;-83
2021/07/22 04:30:57;;;;;;;21.27;12.00;;;24.40;99.90;;;;;;4996192;28;20014;-84
2021/07/22 04:33:22;;;;;;;19.48;12.82;;;24.50;99.90;;;;;;4995259;28;20101;-85
2021/07/22 04:35:48;;;;;;;18.13;12.32;;;24.50;99.90;;;;;;4977548;28;20022;-85
2021/07/22 04:38:14;;;;;;;18.75;12.07;;;24.70;99.90;;;;;;4977768;28;20029;-85
2021/07/22 04:40:39;;;;;;;21.15;12.50;;;24.70;99.90;;;;;;4975783;28;20126;-85
2021/07/22 04:43:05;;;;;;;20.33;11.20;;;24.80;99.90;;;;;;4995143;28;20081;-85
2021/07/22 04:45:31;;;;;;;20.10;12.27;;;25.20;99.90;;;;;;4977538;28;20043;-85
2021/07/22 04:48:02;;;;;;;16.75;11.93;;;25.90;99.20;;;;;;4977658;28;20034;-84
2021/07/22 04:50:27;;;;;;;20.55;12.10;;;26.70;98.50;;;;;;4994434;28;20023;-85
2021/07/22 04:52:53;;;;;;;15.02;11.52;;;27.60;97.60;;;;;;4995019;28;20089;-85
2021/07/22 04:55:19;;;;;;;18.13;10.85;;;28.20;96.80;;;;;;4976998;28;20034;-85
2021/07/22 04:57:44;;;;;;;19.05;11.15;;;28.60;96.20;;;;;;4988592;28;20050;-85
2021/07/22 05:00:10;;;;;;;17.80;11.50;;;28.80;96.00;;;;;;4994955;28;20026;-84
2021/07/22 05:02:36;;;;;;;17.95;10.45;;;29.00;95.70;;;;;;4994792;28;20026;-84
2021/07/22 05:05:01;;;;;;;18.88;10.25;;;29.00;95.60;;;;;;4987863;28;20037;-85
2021/07/22 05:07:27;;;;;;;14.48;9.73;;;29.70;94.70;;;;;;4994591;28;20250;-85
2021/07/22 05:09:53;;;;;;;16.75;9.98;;;29.90;94.60;;;;;;4993609;28;20030;-86
2021/07/22 05:12:19;;;;;;;22.52;10.50;;;30.20;94.30;;;;;;4994396;28;20422;-85
2021/07/22 05:17:25;;;;;;;16.70;9.93;;;30.50;93.70;;;;;;5000817;22;20097;-86
2021/07/22 05:19:50;;;;;;;16.60;10.40;;;30.30;93.60;;;;;;5014077;28;20418;-85
2021/07/22 05:22:19;;;;;;;14.30;10.02;;;30.10;93.40;;;;;;4996045;28;20030;-86
2021/07/22 05:24:45;;;;;;;12.48;9.38;;;29.50;93.90;;;;;;4996655;28;20026;-86
2021/07/22 05:27:14;;;;;;;14.60;9.68;;;29.40;93.90;;;;;;5000836;28;20037;-86
2021/07/22 05:29:40;;;;;;;15.30;9.57;;;29.50;93.90;;;;;;5011696;28;20029;-86
2021/07/22 05:32:06;;;;;;;23.75;10.32;;;29.90;93.50;;;;;;5012361;28;20021;-86
2021/07/22 05:34:32;;;;;;;15.80;10.57;;;29.80;93.60;;;;;;4994034;28;20026;-86
2021/07/22 05:36:57;;;;;;;13.45;9.40;;;29.60;93.50;;;;;;5002207;28;20481;-86
2021/07/22 05:39:23;;;;;;;14.35;8.85;;;29.80;93.10;;;;;;5013840;28;20030;-86
2021/07/22 05:41:49;;;;;;;21.63;9.60;;;29.90;93.10;;;;;;5011237;28;20042;-86
2021/07/22 05:44:14;;;;;;;22.13;9.32;;;29.90;93.00;;;;;;5005854;28;20030;-86
2021/07/22 05:46:40;;;;;;;22.05;9.70;;;30.50;92.50;;;;;;5014402;28;20375;-89
2021/07/22 05:49:06;;;;;;;13.40;8.77;;;30.70;91.90;;;;;;5014647;28;20409;-83
2021/07/22 05:51:32;;;;;;;15.85;9.05;;;30.60;92.10;;;;;;5013902;28;20024;-86
2021/07/22 05:53:59;;;;;;;13.95;9.48;;;30.90;91.90;;;;;;5014358;28;20013;-85
2021/07/22 05:56:25;;;;;;;20.60;9.48;;;30.90;91.70;;;;;;5013992;28;20025;-84
2021/07/22 05:58:51;;;;;;;14.15;8.00;;;30.90;91.70;;;;;;5013613;28;20395;-85
2021/07/22 06:01:18;;;;;;;14.15;9.18;;;30.90;91.40;;;;;;5001069;28;20117;-85
2021/07/22 06:03:44;;;;;;;15.02;8.70;;;31.50;91.00;;;;;;5011163;28;20084;-87
2021/07/22 06:06:10;;;;;;;13.95;8.13;;;31.10;91.30;;;;;;5006641;28;20060;-87
2021/07/22 06:08:35;;;;;;;16.48;8.90;;;31.30;91.20;;;;;;5012888;28;20065;-88
2021/07/22 06:11:06;;;;;;;19.10;8.80;;;31.60;90.70;;;;;;5013073;28;20026;-87
2021/07/22 06:13:32;;;;;;;13.38;8.50;;;31.20;90.90;;;;;;5012890;28;20492;-81
2021/07/22 06:15:57;;;;;;;16.77;8.98;;;30.20;91.50;;;;;;5012750;28;20069;-86
2021/07/22 06:18:23;;;;;;;18.10;9.07;;;29.80;91.80;;;;;;5012918;28;20026;-87
2021/07/22 06:20:49;;;;;;;12.52;8.85;;;30.10;91.80;;;;;;5006836;28;20033;-82
2021/07/22 06:23:14;;;;;;;12.07;8.48;;;30.50;91.50;;;;;;4993253;28;20069;-80
2021/07/22 06:25:40;;;;;;;15.45;9.05;;;30.00;91.80;;;;;;4993401;28;20026;-84
2021/07/22 06:28:06;;;;;;;13.57;9.18;;;30.20;91.90;;;;;;4995809;28;20403;-83
2021/07/22 06:30:31;;;;;;;16.77;9.02;;;30.20;91.70;;;;;;4992987;28;20027;-83
2021/07/22 06:32:57;;;;;;;23.27;9.15;;;29.90;92.20;;;;;;4975889;28;20479;-83
2021/07/22 06:35:23;;;;;;;15.23;9.30;;;29.80;91.90;;;;;;4992682;28;20033;-84
2021/07/22 06:37:49;;;;;;;18.63;9.50;;;29.70;92.00;;;;;;4991084;28;20022;-88
2021/07/22 06:40:15;;;;;;;24.15;10.07;;;30.10;91.80;;;;;;4992663;28;20076;-84
2021/07/22 06:42:42;;;;;;;12.95;8.35;;;30.60;91.40;;;;;;4975466;28;20097;-87
2021/07/22 06:45:08;;;;;;;12.45;8.00;;;31.20;90.50;;;;;;4992925;28;20034;-86
2021/07/22 06:47:38;;;;;;;16.60;7.80;;;31.80;90.20;;;;;;4998707;28;20037;-87
2021/07/22 06:50:07;;;;;;;;;;;31.70;89.80;;;;;;5012704;28;20435;-87
2021/07/22 06:52:35;;;;;;;13.75;8.50;;;31.90;89.60;;;;;;4994609;28;19905;-88
2021/07/22 06:55:01;;;;;;;14.13;9.02;;;32.30;88.90;;;;;;4999868;28;20030;-87
2021/07/22 06:57:26;;;;;;;13.60;8.15;;;32.60;87.50;;;;;;4997429;28;20442;-83
2021/07/22 06:59:52;;;;;;;14.07;8.45;;;32.40;87.60;;;;;;5005808;28;20019;-88
2021/07/22 07:02:17;;;;;;;12.52;8.38;;;32.50;87.60;;;;;;5005405;28;20030;-88
2021/07/22 07:04:43;;;;;;;11.50;8.10;;;32.40;87.50;;;;;;4994923;28;20022;-84
2021/07/22 07:07:09;;;;;;;10.85;7.93;;;32.80;86.90;;;;;;5012446;28;20026;-84
2021/07/22 07:09:34;;;;;;;15.13;8.13;;;33.10;85.80;;;;;;5011691;28;20083;-88
2021/07/22 07:12:00;;;;;;;12.15;8.20;;;33.30;85.90;;;;;;5012261;28;20022;-83
2021/07/22 07:14:26;;;;;;;18.83;8.98;;;33.80;84.40;;;;;;5012167;28;20099;-89
2021/07/22 07:16:52;;;;;;;11.38;8.43;;;33.30;85.30;;;;;;4984945;28;20039;-89
2021/07/22 07:19:17;;;;;;;19.05;7.75;;;32.70;86.30;;;;;;4974003;28;20026;-84
2021/07/22 07:21:43;;;;;;;16.10;8.93;;;32.20;86.70;;;;;;4972013;28;20077;-85
2021/07/22 07:24:09;;;;;;;13.05;7.90;;;31.90;88.20;;;;;;4972317;28;20026;-88
2021/07/22 07:26:34;;;;;;;10.50;8.40;;;31.80;89.40;;;;;;4973238;28;20035;-79
2021/07/22 07:29:00;;;;;;;15.13;8.65;;;31.40;89.40;;;;;;4973313;28;20106;-91
2021/07/22 07:31:26;;;;;;;14.77;8.93;;;30.60;90.40;;;;;;4973125;28;20046;-80
2021/07/22 07:33:51;;;;;;;14.20;8.23;;;30.40;91.00;;;;;;4973420;28;20114;-79
2021/07/22 07:36:17;;;;;;;15.00;8.90;;;30.10;91.10;;;;;;4972680;28;20019;-79
2021/07/22 07:38:43;;;;;;;15.80;8.10;;;30.00;91.50;;;;;;4973389;28;20023;-78
2021/07/22 07:41:09;;;;;;;11.63;8.40;;;29.70;91.40;;;;;;4973239;28;20428;-83
2021/07/22 07:43:35;;;;;;;15.23;9.07;;;29.50;92.00;;;;;;4973531;28;20081;-84
2021/07/22 07:46:00;;;;;;;13.00;8.85;;;29.40;92.00;;;;;;4973209;28;20468;-86
2021/07/22 07:48:26;;;;;;;12.88;9.07;;;29.30;92.20;;;;;;4973236;28;20035;-88
2021/07/22 07:50:52;;;;;;;15.80;9.77;;;29.30;92.20;;;;;;4974286;28;20118;-84
2021/07/22 07:53:19;;;;;;;14.05;8.90;;;29.30;92.50;;;;;;4972311;28;20030;-80
2021/07/22 07:55:45;;;;;;;15.80;8.68;;;29.30;92.40;;;;;;4972073;28;20030;-87
2021/07/22 07:58:11;;;;;;;13.32;9.00;;;29.10;92.60;;;;;;4971906;28;20039;-79
2021/07/22 08:00:37;;;;;;;11.32;8.50;;;29.00;92.50;;;;;;4969745;28;20693;-88
2021/07/22 08:03:04;;;;;;;12.18;9.15;;;28.80;93.00;;;;;;4974578;28;20023;-86
2021/07/22 08:05:30;;;;;;;16.02;9.05;;;28.90;93.20;;;;;;4976620;28;20047;-89
2021/07/22 08:07:56;;;;;;;15.98;9.57;;;28.90;93.30;;;;;;4975317;28;20484;-78
2021/07/22 08:10:22;;;;;;;14.07;9.43;;;28.70;93.30;;;;;;4974784;28;20034;-89
2021/07/22 08:12:48;;;;;;;25.52;8.98;;;28.50;93.70;;;;;;4972898;28;20474;-87
2021/07/22 08:15:14;;;;;;;11.80;8.75;;;28.40;94.00;;;;;;4975727;28;20026;-82
2021/07/22 08:17:41;;;;;;;15.15;9.10;;;28.40;94.20;;;;;;4978824;28;20046;-91
2021/07/22 08:20:09;;;;;;;16.42;9.15;;;28.40;93.80;;;;;;4996201;28;20026;-85
2021/07/22 08:22:37;;;;;;;20.73;9.93;;;28.30;93.90;;;;;;4996168;28;20023;-89
2021/07/22 08:25:04;;;;;;;16.88;10.15;;;28.30;94.20;;;;;;4994723;28;20101;-82
2021/07/22 08:27:31;;;;;;;18.20;10.00;;;28.40;94.10;;;;;;4995154;28;20037;-87
2021/07/22 08:29:58;;;;;;;14.57;9.73;;;28.60;93.90;;;;;;5002507;28;20026;-86
2021/07/22 08:32:24;;;;;;;17.52;10.20;;;28.90;93.70;;;;;;4998972;28;20552;-84
2021/07/22 08:34:50;;;;;;;19.75;9.27;;;28.90;93.50;;;;;;4983279;28;20034;-88
2021/07/22 08:37:16;;;;;;;16.08;9.35;;;29.20;93.70;;;;;;4991149;28;20073;-86
2021/07/22 08:39:45;;;;;;;16.70;9.82;;;29.00;93.00;;;;;;4994096;28;20027;-76
2021/07/22 08:42:13;;;;;;;13.93;9.70;;;28.90;93.40;;;;;;4985791;28;20074;-79
2021/07/22 08:44:42;;;;;;;20.15;9.85;;;29.10;93.50;;;;;;4991644;28;20029;-85
2021/07/22 08:47:09;;;;;;;18.17;9.50;;;29.30;93.30;;;;;;4993720;28;20023;-86
2021/07/22 08:49:37;;;;;;;18.20;9.30;;;29.40;93.40;;;;;;4990726;28;20372;-88
2021/07/22 08:52:08;;;;;;;14.05;9.10;;;29.30;93.40;;;;;;4993703;28;20027;-89
2021/07/22 08:54:34;;;;;;;;;;;29.20;93.50;;;;;;4995415;28;20033;-88
2021/07/22 08:57:01;;;;;;;11.90;9.45;;;29.20;93.80;;;;;;4990499;28;19910;-89
2021/07/22 08:59:31;;;;;;;13.82;8.05;;;29.20;94.00;;;;;;4990338;28;20042;-82
2021/07/22 09:01:57;;;;;;;14.65;9.70;;;29.20;94.30;;;;;;4993121;28;20025;-87
2021/07/22 09:04:23;;;;;;;16.23;8.85;;;29.00;94.00;;;;;;4995177;28;20041;-76
2021/07/22 09:06:48;;;;;;;17.00;9.02;;;29.10;94.10;;;;;;4994813;28;20015;-81
2021/07/22 09:09:16;;;;;;;15.38;9.27;;;29.10;94.40;;;;;;4987438;28;20371;-88
2021/07/22 09:12:01;;;;;;;20.42;8.68;;;29.20;93.60;;;;;;4995956;28;20026;-81
2021/07/22 09:14:29;;;;;;;16.13;9.77;;;29.30;93.80;;;;;;4993346;28;20026;-83
2021/07/22 09:16:56;;;;;;;18.83;9.10;;;29.40;94.10;;;;;;4993961;28;20042;-87
2021/07/22 09:19:38;;;;;;;13.70;8.32;;;29.60;94.00;;;;;;4994105;28;20022;-87
2021/07/22 09:22:09;;;;;;;12.25;8.93;;;29.80;94.00;;;;;;4992003;28;20019;-76
2021/07/22 09:24:53;;;;;;;9.67;8.53;;;29.80;93.60;;;;;;4995176;28;20030;-93
2021/07/22 09:27:42;;;;;;;12.80;8.70;;;29.80;93.70;;;;;;4995196;28;20018;-91
2021/07/22 09:30:16;;;;;;;13.13;8.90;;;29.80;93.70;;;;;;4994729;28;20033;-90
2021/07/22 09:32:48;;;;;;;19.10;9.77;;;29.90;93.40;;;;;;4991302;28;20048;-89
2021/07/22 09:35:17;;;;;;;14.43;9.65;;;30.10;93.50;;;;;;4993994;28;20030;-89
2021/07/22 09:37:45;;;;;;;16.83;9.25;;;30.10;93.40;;;;;;4993801;28;20019;-88
2021/07/22 09:40:34;;;;;;;14.50;8.93;;;30.20;93.20;;;;;;4993579;28;20026;-86
2021/07/22 09:43:00;;;;;;;13.60;8.95;;;30.20;92.90;;;;;;4988295;28;20022;-76
2021/07/22 09:45:35;;;;;;;29.42;10.30;;;30.20;92.60;;;;;;4994806;28;20026;-90
2021/07/22 09:48:10;;;;;;;14.85;10.07;;;30.20;92.80;;;;;;4988340;28;20052;-89
2021/07/22 09:50:44;;;;;;;33.05;9.63;;;30.30;92.70;;;;;;4988064;28;20018;-89
2021/07/22 09:53:11;;;;;;;16.23;9.07;;;30.60;92.20;;;;;;4988357;28;20058;-88
2021/07/22 09:55:39;;;;;;;16.40;10.10;;;30.60;92.10;;;;;;4994391;28;20024;-77
2021/07/22 09:58:07;;;;;;;20.17;9.40;;;30.90;92.00;;;;;;4994639;28;20015;-79
2021/07/22 10:00:35;;;;;;;15.20;10.55;;;31.10;91.60;;;;;;4993113;28;20118;-88
2021/07/22 10:03:06;;;;;;;12.65;8.60;;;31.40;91.30;;;;;;4995558;28;20045;-91
2021/07/22 10:05:39;;;;;;;22.02;9.38;;;31.70;91.10;;;;;;4994992;28;20543;-79
2021/07/22 10:08:06;;;;;;;15.45;10.10;;;31.60;91.00;;;;;;4994359;28;20488;-84
2021/07/22 10:10:33;;;;;;;15.00;9.75;;;31.60;91.10;;;;;;4993976;28;20088;-87
2021/07/22 10:13:00;;;;;;;18.27;10.02;;;31.50;91.00;;;;;;4993122;28;20015;-81
2021/07/22 10:15:32;;;;;;;13.77;9.07;;;32.00;91.00;;;;;;4992226;28;20396;-89
2021/07/22 10:17:59;;;;;;;14.73;9.90;;;32.60;90.50;;;;;;4993562;28;20054;-88
2021/07/22 10:20:31;;;;;;;11.60;8.77;;;33.00;90.00;;;;;;4991563;28;20092;-78
2021/07/22 10:22:58;;;;;;;17.15;9.93;;;33.40;90.00;;;;;;4983616;28;20026;-86
2021/07/22 10:25:24;;;;;;;13.30;9.45;;;33.70;88.70;;;;;;4993539;28;20387;-81
2021/07/22 10:27:52;;;;;;;41.63;9.80;;;33.70;88.00;;;;;;4993894;28;20121;-85
2021/07/22 10:30:19;;;;;;;17.75;9.93;;;34.00;87.90;;;;;;4995083;28;20165;-76
2021/07/22 10:33:00;;;;;;;17.63;9.23;;;33.90;87.50;;;;;;4994583;28;20060;-91
2021/07/22 10:35:32;;;;;;;;;;;34.00;87.00;;;;;;4995006;28;20157;-79
2021/07/22 10:38:40;;;;;;;12.13;9.30;;;34.00;88.00;;;;;;4993975;28;19917;-80
2021/07/22 10:41:05;;;;;;;13.13;10.10;;;33.90;88.20;;;;;;4994162;28;20184;-86
2021/07/22 10:43:41;;;;;;;21.70;9.70;;;33.90;89.00;;;;;;4994073;28;20078;-81
2021/07/22 10:46:08;;;;;;;15.35;9.73;;;34.00;88.30;;;;;;4992980;28;20117;-80
2021/07/22 10:48:34;;;;;;;14.50;10.18;;;34.00;88.30;;;;;;4992581;28;20522;-78
2021/07/22 10:51:02;;;;;;;15.35;9.63;;;34.10;86.80;;;;;;4992672;28;20040;-83
2021/07/22 10:53:44;;;;;;;14.50;10.10;;;33.90;87.50;;;;;;4992653;28;20030;-82
2021/07/22 10:56:17;;;;;;;15.13;10.15;;;33.80;88.00;;;;;;4991693;28;20062;-84
2021/07/22 10:58:43;;;;;;;11.43;9.05;;;33.80;88.50;;;;;;4984778;28;20390;-77
2021/07/22 11:01:09;;;;;;;11.77;9.18;;;33.90;89.10;;;;;;4991790;28;20078;-77
2021/07/22 11:03:40;;;;;;;15.35;9.85;;;34.00;88.60;;;;;;4992786;28;20031;-79
2021/07/22 11:06:06;;;;;;;18.05;8.90;;;34.10;88.90;;;;;;4992560;28;20503;-77
2021/07/22 11:08:39;;;;;;;18.67;10.07;;;33.90;89.20;;;;;;4992416;28;20053;-81
2021/07/22 11:11:13;;;;;;;16.02;9.82;;;33.80;89.60;;;;;;4993193;28;20033;-80
2021/07/22 11:13:46;;;;;;;23.92;9.52;;;33.70;90.10;;;;;;4981120;28;20555;-84
2021/07/22 11:16:30;;;;;;;17.92;9.57;;;33.70;90.20;;;;;;4992896;28;20464;-78
2021/07/22 11:18:59;;;;;;;17.92;10.10;;;33.60;90.20;;;;;;4991029;28;20029;-81
2021/07/22 11:21:28;;;;;;;14.80;10.65;;;33.50;90.10;;;;;;4991834;28;20037;-81
2021/07/22 11:23:54;;;;;;;18.50;11.13;;;33.60;90.10;;;;;;4992057;28;20010;-78
2021/07/22 11:26:28;;;;;;;15.32;10.38;;;33.60;89.90;;;;;;4997096;28;20030;-78
2021/07/22 11:28:54;;;;;;;13.55;9.77;;;33.50;88.50;;;;;;4996954;28;20398;-82
2021/07/22 11:31:20;;;;;;;13.52;9.95;;;33.50;88.90;;;;;;4997254;28;20034;-77
2021/07/22 11:33:47;;;;;;;14.45;10.07;;;33.60;89.40;;;;;;4998141;28;20026;-77
2021/07/22 11:36:22;;;;;;;14.30;10.10;;;33.60;87.80;;;;;;4999662;28;20023;-81
2021/07/22 11:38:52;;;;;;;17.40;10.85;;;33.50;88.10;;;;;;4998650;28;20022;-78
2021/07/22 11:41:19;;;;;;;16.50;9.65;;;33.40;88.80;;;;;;4996450;28;20515;-91
2021/07/22 11:44:02;;;;;;;17.65;10.55;;;33.10;89.60;;;;;;4990058;28;20066;-81
2021/07/22 11:46:45;;;;;;;15.52;10.15;;;32.90;90.60;;;;;;4996397;28;20026;-77
2021/07/22 11:49:16;;;;;;;24.40;10.93;;;32.90;90.40;;;;;;4995891;28;20066;-77
2021/07/22 11:51:44;;;;;;;18.65;9.85;;;32.90;89.50;;;;;;4988784;28;20085;-84
2021/07/22 11:54:11;;;;;;;17.70;10.18;;;32.60;88.60;;;;;;4996293;28;20542;-76
2021/07/22 11:56:38;;;;;;;17.92;10.63;;;32.40;88.80;;;;;;4995702;28;20015;-76
2021/07/22 11:59:07;;;;;;;14.25;10.07;;;32.30;88.60;;;;;;4995668;28;20030;-77
2021/07/22 12:01:37;;;;;;;18.50;10.73;;;32.00;88.70;;;;;;4995136;28;20093;-80
2021/07/22 12:04:03;;;;;;;16.80;10.27;;;32.00;90.00;;;;;;4988582;28;20031;-76
2021/07/22 12:06:29;;;;;;;18.65;11.02;;;31.80;90.40;;;;;;4992822;28;20033;-76
2021/07/22 12:09:01;;;;;;;16.17;10.55;;;31.80;91.10;;;;;;4994903;28;20077;-76
2021/07/22 12:11:27;;;;;;;15.73;10.75;;;31.80;91.70;;;;;;4994336;28;20077;-79
2021/07/22 12:13:53;;;;;;;18.42;10.40;;;31.80;92.50;;;;;;4994838;28;20050;-75
2021/07/22 12:16:24;;;;;;;18.25;11.18;;;31.90;93.30;;;;;;4994223;28;20436;-76
2021/07/22 12:18:53;;;;;;;;;;;31.90;93.70;;;;;;4990165;28;20114;-75
2021/07/22 12:21:24;;;;;;;19.98;9.90;;;32.00;93.90;;;;;;4994344;28;19909;-80
2021/07/22 12:23:50;;;;;;;21.23;10.47;;;31.90;94.40;;;;;;4993555;28;20072;-77
2021/07/22 12:26:16;;;;;;;14.32;10.00;;;31.70;94.60;;;;;;4995066;28;20026;-86
2021/07/22 12:29:00;;;;;;;21.60;10.43;;;31.60;95.50;;;;;;4994670;28;20419;-78
2021/07/22 12:31:26;;;;;;;16.10;10.13;;;31.40;95.30;;;;;;4989937;28;20027;-84
2021/07/22 12:33:57;;;;;;;11.85;9.65;;;31.30;95.10;;;;;;4993180;28;20027;-80
2021/07/22 12:36:23;;;;;;;18.95;10.95;;;31.00;94.50;;;;;;4994499;28;20026;-88
2021/07/22 12:39:17;;;;;;;19.60;10.13;;;30.70;95.10;;;;;;4995086;28;20133;-83